Bareilly — A8KG7 — position and weather

sailwx.info

Track history (hours):
 
Tides and Currents Weather Stations Pressure Air Temp Water Temp Dewpoint Dewpoint Depression Visibility Wind Speed Wind Dir Waves Ship Positions

Bareilly

Last reported at 2016-Feb-10 23:09 UTC. Time now 2016-Feb-11 19:15 UTC.
Position S 18°28' E 115°54'.

Length 243 m; draft 12.3 m.

Type: Tanker. MMSI: 636013054.

Date/timePositionNaut miles runAvg speedWind from/ knotsBaromVisibWave heightAir tempDewpointWater temp
2016-Feb-10 23:09S 18°28' E 115°54'812.9
2016-Feb-10 22:33S 18°34' E 115°50'2512.5
2016-Feb-10 20:32S 18°56' E 115°36'1412.9
2016-Feb-10 19:27S 19°07' E 115°28'1212.8
2016-Feb-10 18:31S 19°17' E 115°21'3812.6
2016-Feb-10 15:31S 19°49' E 114°60'102 2.2
2016-Feb-08 17:26S 21°24' E 114°18'3 0.9
2016-Feb-08 14:32S 21°27' E 114°17'1 1.1
2016-Feb-08 13:33S 21°28' E 114°17'1 1.2
2016-Feb-08 12:33S 21°29' E 114°16'8 3.5
2016-Feb-08 10:12S 21°37' E 114°15'7 2.4
2016-Feb-08 07:10S 21°29' E 114°15'10 0.8
2016-Feb-07 18:28S 21°21' E 114°21'0 0.4
2016-Feb-07 17:14S 21°21' E 114°21'1 0.7
2016-Feb-07 15:30S 21°22' E 114°20'1 1.0
2016-Feb-07 14:29S 21°23' E 114°20'12 0.3
2016-Feb-06 02:26S 21°11' E 114°18'3 1.2
2016-Feb-06 00:07S 21°14' E 114°17'1 1.1
2016-Feb-05 23:17S 21°15' E 114°16'1 0.9
2016-Feb-05 22:34S 21°15' E 114°16'1 0.9
2016-Feb-05 21:16S 21°16' E 114°16'0 0.7
2016-Feb-05 20:33S 21°17' E 114°15'4 1.0
2016-Feb-05 16:33S 21°21' E 114°16'2 1.1
2016-Feb-05 14:33S 21°23' E 114°16'1 1.4
2016-Feb-05 13:33S 21°24' E 114°17'1 1.2
2016-Feb-05 12:20S 21°25' E 114°17'7 0.5
2016-Feb-04 23:31S 21°24' E 114°24'1 0.9
2016-Feb-04 22:34S 21°24' E 114°23'  
Track history (hours):
 
Tides and Currents Weather Stations Pressure Air Temp Water Temp Dewpoint Dewpoint Depression Visibility Wind Speed Wind Dir Waves Ship Positions

Bareilly

Last reported at 2016-Feb-10 23:09 UTC. Time now 2016-Feb-11 19:15 UTC.
Position S 18°28' E 115°54'.

Length 243 m; draft 12.3 m.

Type: Tanker. MMSI: 636013054.

Date/timePositionNaut miles runAvg speedWind from/ knotsBaromVisibWave heightAir tempDewpointWater temp
2016-Feb-10 23:09S 18°28' E 115°54'812.9
2016-Feb-10 22:33S 18°34' E 115°50'2512.5
2016-Feb-10 20:32S 18°56' E 115°36'1412.9
2016-Feb-10 19:27S 19°07' E 115°28'1212.8
2016-Feb-10 18:31S 19°17' E 115°21'3812.6
2016-Feb-10 15:31S 19°49' E 114°60'102 2.2
2016-Feb-08 17:26S 21°24' E 114°18'3 0.9
2016-Feb-08 14:32S 21°27' E 114°17'1 1.1
2016-Feb-08 13:33S 21°28' E 114°17'1 1.2
2016-Feb-08 12:33S 21°29' E 114°16'8 3.5
2016-Feb-08 10:12S 21°37' E 114°15'7 2.4
2016-Feb-08 07:10S 21°29' E 114°15'10 0.8
2016-Feb-07 18:28S 21°21' E 114°21'0 0.4
2016-Feb-07 17:14S 21°21' E 114°21'1 0.7
2016-Feb-07 15:30S 21°22' E 114°20'1 1.0
2016-Feb-07 14:29S 21°23' E 114°20'12 0.3
2016-Feb-06 02:26S 21°11' E 114°18'3 1.2
2016-Feb-06 00:07S 21°14' E 114°17'1 1.1
2016-Feb-05 23:17S 21°15' E 114°16'1 0.9
2016-Feb-05 22:34S 21°15' E 114°16'1 0.9
2016-Feb-05 21:16S 21°16' E 114°16'0 0.7
2016-Feb-05 20:33S 21°17' E 114°15'4 1.0
2016-Feb-05 16:33S 21°21' E 114°16'2 1.1
2016-Feb-05 14:33S 21°23' E 114°16'1 1.4
2016-Feb-05 13:33S 21°24' E 114°17'1 1.2
2016-Feb-05 12:20S 21°25' E 114°17'7 0.5
2016-Feb-04 23:31S 21°24' E 114°24'1 0.9
2016-Feb-04 22:34S 21°24' E 114°23'  

Dump ship's entire track history